Alexandria, Virginia
Current Conditions -  °F | °C
As of 8:52 PM on Friday 28 Nov 2014 (Local Time) from KDCA Reporting Station
Few Clouds Few Clouds  
Wind Chill: 32°   Ceiling: Unl
Heat Index: 36°   Visibility: 10mi
Dew Point: 17°   Wind: 5mph
Humidity: 46%   Direction: 320°NW
Pressure: 30.31"   Gusts: NA
Location:  38.8°N, 77.04°W
Report Text: KDCA 290152Z 32004KT 10SM FEW250 02/M08 A3031 RMK AO2 SLP262 T00221083
Loading
Personal Weather Stations






























Interactive Weather Map New forecast layout! Learn more

10-Day Weather Forecast

Advertisements
Track Severe Weather on mobile